Elmwood, Massachusetts
Current Conditions -  °F | °C
As of 4:20 PM on Monday 24 Nov 2014 (Local Time) from KTAN Reporting Station
Overcast Overcast  
Wind Chill: 63°   Ceiling: 900
Heat Index: 63°   Visibility: 8mi
Dew Point: 60°   Wind: 23mph
Humidity: 90%   Direction: 200°SSW
Pressure: 29.65"   Gusts: 36mph
Location:  42.01°N, 70.96°W
Report Text: KTAN 242120Z AUTO 20020G31KT 8SM OVC009 17/16 A2965 RMK AO2 PK WND 19033/2104 CIG 008V012 T01720156
Loading
Personal Weather Stations






























Interactive Weather Map New forecast layout! Learn more

10-Day Weather Forecast

Advertisements
Track Severe Weather on mobile